createdAt,value
2023-04-25T00:00:53.455Z,10.12
2023-04-25T00:03:20.313Z,9.72
2023-04-25T00:05:46.953Z,10.35
2023-04-25T00:08:13.396Z,9.50
2023-04-25T00:10:39.796Z,9.70
2023-04-25T00:13:07.187Z,9.80
2023-04-25T00:15:33.604Z,10.32
2023-04-25T00:18:00.036Z,9.99
2023-04-25T00:20:26.419Z,9.60
2023-04-25T00:22:54.294Z,9.72
2023-04-25T00:25:20.756Z,9.66
2023-04-25T00:27:47.057Z,10.06
2023-04-25T00:30:14.004Z,10.17
2023-04-25T00:32:40.584Z,10.13
2023-04-25T00:35:07.281Z,9.88
2023-04-25T00:37:33.700Z,10.34
2023-04-25T00:40:00.177Z,10.33
2023-04-25T00:42:26.558Z,10.44
2023-04-25T00:44:54.067Z,10.77
2023-04-25T00:47:20.675Z,9.99
2023-04-25T00:49:47.255Z,10.44
2023-04-25T00:52:13.797Z,10.57
2023-04-25T00:54:40.565Z,10.66
2023-04-25T00:57:07.014Z,10.69
2023-04-25T00:59:34.475Z,10.53
2023-04-25T01:02:01.422Z,10.20
2023-04-25T01:04:28.707Z,10.35
2023-04-25T01:06:55.314Z,10.61
2023-04-25T01:09:23.069Z,10.47
2023-04-25T01:11:50.371Z,10.48
2023-04-25T01:14:17.309Z,10.27
2023-04-25T01:16:43.801Z,10.34
2023-04-25T01:19:14.150Z,10.40
2023-04-25T01:21:40.838Z,10.39
2023-04-25T01:24:07.714Z,9.75
2023-04-25T01:26:34.819Z,10.29
2023-04-25T01:29:01.638Z,9.68
2023-04-25T01:31:29.112Z,9.74
2023-04-25T01:33:55.591Z,10.14
2023-04-25T01:36:23.006Z,10.09
2023-04-25T01:38:50.042Z,9.63
2023-04-25T01:41:17.909Z,10.19
2023-04-25T01:43:45.399Z,10.08
2023-04-25T01:46:12.877Z,9.61
2023-04-25T01:48:39.497Z,9.98
2023-04-25T01:51:05.982Z,10.08
2023-04-25T01:53:32.699Z,10.34
2023-04-25T01:55:59.150Z,10.03
2023-04-25T01:58:25.522Z,9.35
2023-04-25T02:00:51.879Z,9.90
2023-04-25T02:03:18.396Z,10.02
2023-04-25T02:05:44.911Z,10.00
2023-04-25T02:08:11.298Z,9.76
2023-04-25T02:10:37.933Z,10.27
2023-04-25T02:13:06.149Z,10.25
2023-04-25T02:15:32.980Z,10.06
2023-04-25T02:18:00.984Z,9.99
2023-04-25T02:20:28.690Z,10.02
2023-04-25T02:22:55.291Z,9.97
2023-04-25T02:25:21.851Z,10.03
2023-04-25T02:27:49.138Z,10.09
2023-04-25T02:30:16.338Z,10.03
2023-04-25T02:32:42.781Z,9.95
2023-04-25T02:35:09.702Z,9.91
2023-04-25T02:37:37.283Z,10.29
2023-04-25T02:40:05.066Z,10.16
2023-04-25T02:42:31.727Z,10.20
2023-04-25T02:44:58.121Z,10.12
2023-04-25T02:47:24.669Z,9.80
2023-04-25T02:49:51.324Z,9.87
2023-04-25T02:52:17.685Z,10.11
2023-04-25T02:54:44.106Z,10.12
2023-04-25T02:57:10.457Z,10.07
2023-04-25T02:59:36.882Z,9.89
2023-04-25T03:02:03.279Z,9.55
2023-04-25T03:04:29.752Z,9.90
2023-04-25T03:06:56.510Z,9.96
2023-04-25T03:09:22.893Z,9.57
2023-04-25T03:11:49.299Z,9.93
2023-04-25T03:14:16.128Z,9.31
2023-04-25T03:16:42.538Z,9.90
2023-04-25T03:19:08.947Z,9.94
2023-04-25T03:21:36.632Z,9.66
2023-04-25T03:24:05.115Z,10.03
2023-04-25T03:26:31.643Z,9.84
2023-04-25T03:28:57.983Z,10.04
2023-04-25T03:31:24.448Z,9.87
2023-04-25T03:33:51.057Z,9.68
2023-04-25T03:36:17.739Z,9.85
2023-04-25T03:38:44.090Z,10.08
2023-04-25T03:41:10.582Z,9.80
2023-04-25T03:43:37.023Z,9.48
2023-04-25T03:46:03.514Z,9.45
2023-04-25T03:48:29.930Z,9.36
2023-04-25T03:50:56.336Z,10.06
2023-04-25T03:53:22.740Z,9.87
2023-04-25T03:55:49.150Z,9.30
2023-04-25T03:58:15.504Z,9.93
2023-04-25T04:00:41.846Z,9.76
2023-04-25T04:03:08.344Z,10.06
2023-04-25T04:05:35.010Z,9.56
2023-04-25T04:08:01.441Z,9.95
2023-04-25T04:10:27.859Z,9.92
2023-04-25T04:12:54.204Z,9.64
2023-04-25T04:15:20.691Z,9.28
2023-04-25T04:17:47.884Z,9.81
2023-04-25T04:20:14.563Z,10.07
2023-04-25T04:22:40.948Z,10.13
2023-04-25T04:25:07.943Z,10.21
2023-04-25T04:27:35.295Z,9.97
2023-04-25T04:30:02.715Z,9.92
2023-04-25T04:32:31.372Z,9.96
2023-04-25T04:34:58.154Z,9.55
2023-04-25T04:37:24.982Z,10.04
2023-04-25T04:39:51.398Z,10.10
2023-04-25T04:42:18.083Z,10.11
2023-04-25T04:44:45.619Z,10.19
2023-04-25T04:47:13.579Z,10.12
2023-04-25T04:49:39.902Z,10.00
2023-04-25T04:52:06.467Z,10.19
2023-04-25T04:54:32.853Z,10.34
2023-04-25T04:56:59.552Z,9.84
2023-04-25T04:59:25.897Z,10.08
2023-04-25T05:01:53.786Z,10.23
2023-04-25T05:04:20.186Z,10.14
2023-04-25T05:06:48.806Z,9.63
2023-04-25T05:09:16.175Z,10.08
2023-04-25T05:11:42.519Z,9.90
2023-04-25T05:14:08.868Z,9.64
2023-04-25T05:16:35.843Z,10.17
2023-04-25T05:19:02.309Z,10.06
2023-04-25T05:21:29.161Z,9.48
2023-04-25T05:23:55.505Z,10.23
2023-04-25T05:26:21.862Z,10.08
2023-04-25T05:28:48.255Z,10.24
2023-04-25T05:31:14.617Z,9.90
2023-04-25T05:33:40.983Z,10.45
2023-04-25T05:36:07.988Z,10.55
2023-04-25T05:38:35.088Z,10.54
2023-04-25T05:41:01.780Z,9.87
2023-04-25T05:43:30.538Z,10.47
2023-04-25T05:45:56.964Z,10.48
2023-04-25T05:48:23.337Z,10.61
2023-04-25T05:50:49.761Z,10.10
2023-04-25T05:53:16.217Z,10.38
2023-04-25T05:55:42.630Z,10.75
2023-04-25T05:58:09.004Z,10.61
2023-04-25T06:00:35.421Z,10.65
2023-04-25T06:03:02.350Z,10.76
2023-04-25T06:05:28.909Z,10.17
2023-04-25T06:07:55.521Z,11.13
2023-04-25T06:10:22.387Z,10.40
2023-04-25T06:12:49.064Z,10.36
2023-04-25T06:15:27.974Z,10.96
2023-04-25T06:17:55.410Z,11.17
2023-04-25T06:20:25.081Z,10.91
2023-04-25T06:22:54.807Z,11.15
2023-04-25T06:25:21.257Z,11.25
2023-04-25T06:27:47.659Z,11.19
2023-04-25T06:30:14.148Z,10.58
2023-04-25T06:32:40.764Z,11.27
2023-04-25T06:35:07.592Z,10.96
2023-04-25T06:37:34.006Z,11.11
2023-04-25T06:40:00.406Z,10.67
2023-04-25T06:42:26.736Z,10.85
2023-04-25T06:44:53.158Z,10.52
2023-04-25T06:47:19.502Z,10.95
2023-04-25T06:49:45.893Z,10.99
2023-04-25T06:52:12.244Z,10.65
2023-04-25T06:54:38.688Z,10.37
2023-04-25T06:57:05.324Z,10.63
2023-04-25T06:59:31.761Z,11.31
2023-04-25T07:01:58.148Z,11.54
2023-04-25T07:04:24.646Z,11.69
2023-04-25T07:06:51.398Z,11.82
2023-04-25T07:09:18.024Z,11.59
2023-04-25T07:11:44.509Z,11.42
2023-04-25T07:14:10.860Z,11.66
2023-04-25T07:16:37.534Z,11.81
2023-04-25T07:19:06.976Z,12.00
2023-04-25T07:21:33.763Z,11.52
2023-04-25T07:24:00.125Z,11.18
2023-04-25T07:26:26.754Z,12.18
2023-04-25T07:28:53.177Z,12.38
2023-04-25T07:31:19.623Z,11.91
2023-04-25T07:33:46.790Z,12.05
2023-04-25T07:36:13.552Z,12.67
2023-04-25T07:38:40.270Z,12.43
2023-04-25T07:41:06.682Z,12.47
2023-04-25T07:43:35.588Z,12.65
2023-04-25T07:46:02.049Z,12.42
2023-04-25T07:48:28.602Z,12.86
2023-04-25T07:50:55.747Z,12.35
2023-04-25T07:53:22.292Z,12.43
2023-04-25T07:55:48.684Z,12.35
2023-04-25T07:58:16.261Z,12.71
2023-04-25T08:00:43.157Z,12.54
2023-04-25T08:03:10.731Z,12.64
2023-04-25T08:05:37.300Z,12.33
2023-04-25T08:08:04.059Z,12.79
2023-04-25T08:10:30.476Z,11.95
2023-04-25T08:12:56.981Z,12.94
2023-04-25T08:15:23.346Z,13.16
2023-04-25T08:17:49.750Z,12.80
2023-04-25T08:20:16.412Z,12.94
2023-04-25T08:22:43.182Z,12.41
2023-04-25T08:25:09.545Z,13.05
2023-04-25T08:27:36.014Z,12.67
2023-04-25T08:30:04.142Z,12.02
2023-04-25T08:32:31.048Z,12.45
2023-04-25T08:34:57.750Z,13.05
2023-04-25T08:37:24.231Z,12.48
2023-04-25T08:39:53.329Z,12.16
2023-04-25T08:42:22.069Z,13.14
2023-04-25T08:44:49.585Z,13.29
2023-04-25T08:47:16.479Z,14.21
2023-04-25T08:49:47.086Z,13.61
2023-04-25T08:52:14.478Z,13.65
2023-04-25T08:54:47.202Z,13.77
2023-04-25T08:57:14.531Z,13.00
2023-04-25T08:59:45.278Z,12.38
2023-04-25T09:02:15.428Z,13.32
2023-04-25T09:04:46.406Z,13.65
2023-04-25T09:07:12.953Z,12.91
2023-04-25T09:09:40.300Z,13.65
2023-04-25T09:12:07.051Z,13.52
2023-04-25T09:14:33.502Z,13.38
2023-04-25T09:17:01.863Z,14.08
2023-04-25T09:19:41.060Z,13.93
2023-04-25T09:22:09.072Z,14.14
2023-04-25T09:24:38.643Z,14.73
2023-04-25T09:27:19.635Z,14.52
2023-04-25T09:29:47.397Z,14.35
2023-04-25T09:32:20.146Z,14.49
2023-04-25T09:34:54.150Z,14.52
2023-04-25T09:37:23.511Z,15.29
2023-04-25T09:39:53.654Z,15.05
2023-04-25T09:42:23.384Z,13.70
2023-04-25T09:44:49.768Z,13.80
2023-04-25T09:47:18.601Z,14.29
2023-04-25T09:49:45.247Z,14.19
2023-04-25T09:52:17.747Z,13.99
2023-04-25T09:54:45.907Z,13.93
2023-04-25T09:57:15.284Z,14.17
2023-04-25T09:59:47.461Z,14.09
2023-04-25T10:02:16.488Z,13.13
2023-04-25T10:04:45.979Z,14.14
2023-04-25T10:07:12.957Z,14.33
2023-04-25T10:09:40.831Z,13.71
2023-04-25T10:12:08.750Z,14.52
2023-04-25T10:14:36.002Z,14.23
2023-04-25T10:17:02.882Z,14.28
2023-04-25T10:19:30.549Z,14.36
2023-04-25T10:22:05.366Z,13.17
2023-04-25T10:24:34.032Z,13.24
2023-04-25T10:27:00.775Z,13.94
2023-04-25T10:29:27.476Z,14.18
2023-04-25T10:31:54.337Z,14.21
2023-04-25T10:34:25.977Z,14.36
2023-04-25T10:36:53.205Z,15.08
2023-04-25T10:39:28.330Z,15.61
2023-04-25T10:41:57.746Z,16.60
2023-04-25T10:44:27.156Z,15.88
2023-04-25T10:46:55.635Z,15.58
2023-04-25T10:49:36.139Z,16.64
2023-04-25T10:52:28.639Z,17.75
2023-04-25T10:54:57.163Z,20.62
2023-04-25T10:57:47.254Z,20.76
2023-04-25T11:00:19.471Z,22.28
2023-04-25T11:02:48.745Z,22.90
2023-04-25T11:05:36.397Z,21.80
2023-04-25T11:08:08.438Z,22.51
2023-04-25T11:10:36.473Z,21.80
2023-04-25T11:13:03.693Z,20.45
2023-04-25T11:15:30.582Z,19.18
2023-04-25T11:17:56.945Z,17.47
2023-04-25T11:20:27.003Z,17.18
2023-04-25T11:22:53.535Z,15.92
2023-04-25T11:25:21.061Z,16.03
2023-04-25T11:27:54.952Z,15.68
2023-04-25T11:30:22.333Z,15.48
2023-04-25T11:32:49.247Z,14.84
2023-04-25T11:35:16.447Z,14.80
2023-04-25T11:37:44.862Z,14.24
2023-04-25T11:40:14.415Z,12.94
2023-04-25T11:42:45.291Z,13.68
2023-04-25T11:45:12.426Z,13.62
2023-04-25T11:47:38.916Z,13.10
2023-04-25T11:50:08.430Z,14.57
2023-04-25T11:52:43.988Z,14.38
2023-04-25T11:55:14.283Z,14.29
2023-04-25T11:57:42.066Z,13.02
2023-04-25T12:00:17.493Z,15.49
2023-04-25T12:02:47.301Z,17.59
2023-04-25T12:05:31.337Z,19.22
2023-04-25T12:08:09.973Z,19.36
2023-04-25T12:10:41.792Z,19.78
2023-04-25T12:13:21.260Z,20.53
2023-04-25T12:15:47.832Z,20.96
2023-04-25T12:18:14.425Z,21.58
2023-04-25T12:20:42.562Z,21.03
2023-04-25T12:23:09.195Z,19.68
2023-04-25T12:25:40.963Z,20.28
2023-04-25T12:28:21.397Z,19.05
2023-04-25T12:30:58.919Z,20.16
2023-04-25T12:33:27.701Z,19.55
2023-04-25T12:35:54.931Z,19.72
2023-04-25T12:38:30.256Z,19.56
2023-04-25T12:40:57.247Z,20.24
2023-04-25T12:43:24.038Z,20.04
2023-04-25T12:45:55.273Z,19.05
2023-04-25T12:48:22.769Z,18.49
2023-04-25T12:50:51.555Z,17.56
2023-04-25T12:53:19.812Z,16.82
2023-04-25T12:55:49.162Z,18.31
2023-04-25T12:58:16.456Z,19.05
2023-04-25T13:00:43.092Z,18.96
2023-04-25T13:03:11.751Z,19.87
2023-04-25T13:05:39.362Z,18.35
2023-04-25T13:08:07.424Z,17.00
2023-04-25T13:10:40.606Z,16.92
2023-04-25T13:13:07.004Z,17.39
2023-04-25T13:15:33.476Z,17.92
2023-04-25T13:17:59.918Z,16.98
2023-04-25T13:20:26.317Z,16.34
2023-04-25T13:22:52.897Z,15.94
2023-04-25T13:25:19.792Z,15.07
2023-04-25T13:27:47.321Z,14.72
2023-04-25T13:30:14.060Z,15.23
2023-04-25T13:32:41.002Z,15.83
2023-04-25T13:35:12.535Z,15.84
2023-04-25T13:37:39.636Z,16.04
2023-04-25T13:40:11.057Z,16.86
2023-04-25T13:42:38.381Z,17.09
2023-04-25T13:45:05.289Z,17.28
2023-04-25T13:47:31.953Z,17.66
2023-04-25T13:49:58.464Z,17.62
2023-04-25T13:52:25.261Z,17.61
2023-04-25T13:54:52.137Z,16.92
2023-04-25T13:57:19.175Z,17.01
2023-04-25T13:59:45.784Z,17.68
2023-04-25T14:02:12.184Z,17.93
2023-04-25T14:04:38.817Z,17.51
2023-04-25T14:07:05.930Z,17.90
2023-04-25T14:09:32.426Z,17.11
2023-04-25T14:11:58.869Z,17.80
2023-04-25T14:14:25.543Z,17.31
2023-04-25T14:16:54.693Z,19.20
2023-04-25T14:19:22.497Z,19.30
2023-04-25T14:21:49.025Z,18.80
2023-04-25T14:24:17.357Z,18.94
2023-04-25T14:26:44.687Z,17.83
2023-04-25T14:29:12.826Z,17.39
2023-04-25T14:31:41.299Z,16.83
2023-04-25T14:34:08.099Z,16.40
2023-04-25T14:36:35.204Z,16.77
2023-04-25T14:39:01.892Z,17.26
2023-04-25T14:41:28.746Z,17.75
2023-04-25T14:43:56.497Z,17.76
2023-04-25T14:46:24.365Z,18.09
2023-04-25T14:48:51.204Z,16.90
2023-04-25T14:51:17.586Z,15.84
2023-04-25T14:53:44.053Z,16.13
2023-04-25T14:56:10.704Z,15.98
2023-04-25T14:58:37.168Z,16.24
2023-04-25T15:01:03.748Z,16.87
2023-04-25T15:03:30.419Z,16.61
2023-04-25T15:05:56.911Z,17.14
2023-04-25T15:08:23.308Z,18.42
2023-04-25T15:10:50.023Z,18.38
2023-04-25T15:13:18.230Z,18.12
2023-04-25T15:15:44.692Z,17.67
2023-04-25T15:18:12.782Z,17.46
2023-04-25T15:20:39.321Z,17.36
2023-04-25T15:23:05.994Z,17.71
2023-04-25T15:25:34.132Z,18.13
2023-04-25T15:28:01.012Z,18.87
2023-04-25T15:30:34.131Z,17.06
2023-04-25T15:33:00.838Z,16.70
2023-04-25T15:35:28.602Z,16.29
2023-04-25T15:37:55.044Z,16.39
2023-04-25T15:40:22.138Z,16.97
2023-04-25T15:42:51.672Z,17.43
2023-04-25T15:45:24.138Z,17.56
2023-04-25T15:47:55.378Z,17.44
2023-04-25T15:50:22.195Z,17.68
2023-04-25T15:52:49.796Z,16.88
2023-04-25T15:55:17.411Z,16.37
2023-04-25T15:57:43.967Z,16.42
2023-04-25T16:00:13.204Z,16.70
2023-04-25T16:02:41.180Z,15.94
2023-04-25T16:05:09.105Z,16.17
2023-04-25T16:07:35.718Z,15.72
2023-04-25T16:10:02.278Z,15.56
2023-04-25T16:12:30.990Z,16.02
2023-04-25T16:14:58.157Z,15.49
2023-04-25T16:17:25.399Z,16.09
2023-04-25T16:19:51.897Z,16.49
2023-04-25T16:22:18.476Z,16.42
2023-04-25T16:24:45.531Z,16.07
2023-04-25T16:27:12.102Z,16.80
2023-04-25T16:29:42.267Z,16.57
2023-04-25T16:32:08.656Z,15.92
2023-04-25T16:34:35.876Z,15.77
2023-04-25T16:37:02.338Z,14.89
2023-04-25T16:39:28.725Z,15.37
2023-04-25T16:41:55.294Z,15.66
2023-04-25T16:44:21.777Z,15.14
2023-04-25T16:46:48.383Z,14.49
2023-04-25T16:49:14.935Z,15.00
2023-04-25T16:51:41.343Z,14.88
2023-04-25T16:54:07.967Z,14.64
2023-04-25T16:56:34.423Z,14.79
2023-04-25T16:59:00.932Z,14.71
2023-04-25T17:01:28.539Z,14.16
2023-04-25T17:03:55.221Z,14.43
2023-04-25T17:06:21.717Z,14.96
2023-04-25T17:08:48.087Z,15.08
2023-04-25T17:11:14.497Z,15.18
2023-04-25T17:13:43.312Z,14.98
2023-04-25T17:16:11.765Z,14.96
2023-04-25T17:18:38.605Z,14.81
2023-04-25T17:21:06.071Z,14.49
2023-04-25T17:23:32.638Z,14.82
2023-04-25T17:25:59.427Z,13.79
2023-04-25T17:28:25.815Z,14.23
2023-04-25T17:30:52.328Z,14.27
2023-04-25T17:33:19.033Z,14.38
2023-04-25T17:35:46.125Z,13.84
2023-04-25T17:38:13.719Z,14.46
2023-04-25T17:40:40.099Z,14.29
2023-04-25T17:43:07.049Z,14.55
2023-04-25T17:45:34.697Z,14.22
2023-04-25T17:48:02.322Z,14.73
2023-04-25T17:50:28.771Z,14.39
2023-04-25T17:52:55.497Z,14.65
2023-04-25T17:55:21.842Z,14.75
2023-04-25T17:57:48.373Z,14.53
2023-04-25T18:00:15.210Z,14.39
2023-04-25T18:02:41.639Z,14.56
2023-04-25T18:05:11.482Z,14.72
2023-04-25T18:07:38.295Z,14.52
2023-04-25T18:10:10.137Z,14.17
2023-04-25T18:12:36.965Z,13.85
2023-04-25T18:15:06.734Z,14.13
2023-04-25T18:17:39.631Z,13.70
2023-04-25T18:20:17.238Z,13.90
2023-04-25T18:22:45.028Z,13.11
2023-04-25T18:25:13.550Z,14.12
2023-04-25T18:27:41.106Z,14.14
2023-04-25T18:30:10.587Z,13.69
2023-04-25T18:32:37.830Z,13.42
2023-04-25T18:35:04.858Z,13.65
2023-04-25T18:37:31.297Z,13.26
2023-04-25T18:39:58.453Z,13.26
2023-04-25T18:42:24.907Z,12.84
2023-04-25T18:44:51.266Z,13.37
2023-04-25T18:47:17.818Z,12.64
2023-04-25T18:49:45.233Z,12.94
2023-04-25T18:52:12.738Z,12.76
2023-04-25T18:54:39.252Z,12.57
2023-04-25T18:57:06.423Z,12.88
2023-04-25T18:59:33.557Z,12.46
2023-04-25T19:02:05.093Z,12.77
2023-04-25T19:04:32.293Z,12.73
2023-04-25T19:06:59.527Z,12.21
2023-04-25T19:09:25.924Z,12.66
2023-04-25T19:11:52.365Z,12.49
2023-04-25T19:14:18.852Z,12.64
2023-04-25T19:16:45.488Z,12.32
2023-04-25T19:19:12.380Z,12.63
2023-04-25T19:21:38.852Z,12.59
2023-04-25T19:24:06.942Z,12.82
2023-04-25T19:26:33.426Z,12.56
2023-04-25T19:29:14.531Z,12.55
2023-04-25T19:31:44.168Z,12.82
2023-04-25T19:34:11.308Z,12.68
2023-04-25T19:36:40.146Z,12.52
2023-04-25T19:39:07.517Z,12.56
2023-04-25T19:41:36.217Z,12.52
2023-04-25T19:44:07.269Z,12.41
2023-04-25T19:46:34.970Z,12.79
2023-04-25T19:49:01.547Z,12.64
2023-04-25T19:51:28.926Z,12.32
2023-04-25T19:53:55.585Z,12.53
2023-04-25T19:56:23.279Z,12.75
2023-04-25T19:58:50.737Z,12.60
2023-04-25T20:01:18.175Z,12.91
2023-04-25T20:03:45.287Z,12.87
2023-04-25T20:06:11.824Z,12.60
2023-04-25T20:08:38.485Z,12.82
2023-04-25T20:11:04.950Z,12.06
2023-04-25T20:13:32.613Z,12.70
2023-04-25T20:16:00.656Z,12.70
2023-04-25T20:18:29.458Z,12.59
2023-04-25T20:20:56.449Z,12.27
2023-04-25T20:23:22.835Z,12.74
2023-04-25T20:25:49.173Z,12.64
2023-04-25T20:28:15.855Z,12.73
2023-04-25T20:30:42.337Z,12.57
2023-04-25T20:33:09.294Z,12.29
2023-04-25T20:35:36.846Z,12.72
2023-04-25T20:38:03.281Z,12.25
2023-04-25T20:40:29.761Z,12.58
2023-04-25T20:42:56.457Z,12.11
2023-04-25T20:45:24.235Z,12.07
2023-04-25T20:47:50.746Z,11.78
2023-04-25T20:50:17.391Z,11.83
2023-04-25T20:52:44.419Z,11.77
2023-04-25T20:55:11.800Z,11.70
2023-04-25T20:57:38.266Z,11.25
2023-04-25T21:00:15.360Z,11.27
2023-04-25T21:02:42.173Z,10.54
2023-04-25T21:05:09.540Z,10.37
2023-04-25T21:07:36.552Z,10.86
2023-04-25T21:10:03.060Z,10.47
2023-04-25T21:12:29.514Z,11.07
2023-04-25T21:14:56.318Z,11.40
2023-04-25T21:17:22.937Z,11.38
2023-04-25T21:19:49.434Z,11.29
2023-04-25T21:22:15.814Z,11.57
2023-04-25T21:24:42.133Z,10.80
2023-04-25T21:27:08.816Z,10.92
2023-04-25T21:29:35.284Z,11.45
2023-04-25T21:32:02.103Z,11.54
2023-04-25T21:34:28.468Z,11.61
2023-04-25T21:36:54.828Z,11.55
2023-04-25T21:39:21.197Z,11.40
2023-04-25T21:41:48.282Z,11.41
2023-04-25T21:44:15.531Z,11.41
2023-04-25T21:46:42.848Z,11.24
2023-04-25T21:49:09.312Z,11.23
2023-04-25T21:51:35.967Z,11.15
2023-04-25T21:54:05.189Z,10.87
2023-04-25T21:56:32.694Z,10.64
2023-04-25T21:58:59.049Z,10.37
2023-04-25T22:01:26.756Z,10.20
2023-04-25T22:03:53.602Z,9.67
2023-04-25T22:06:20.111Z,9.84
2023-04-25T22:08:46.508Z,10.33
2023-04-25T22:11:13.603Z,10.75
2023-04-25T22:13:39.968Z,10.23
2023-04-25T22:16:06.549Z,10.06
2023-04-25T22:18:32.977Z,10.71
2023-04-25T22:20:59.390Z,10.67
2023-04-25T22:23:25.749Z,10.52
2023-04-25T22:25:52.113Z,10.62
2023-04-25T22:28:18.637Z,10.48
2023-04-25T22:30:45.052Z,10.40
2023-04-25T22:33:11.644Z,9.95
2023-04-25T22:35:38.051Z,10.31
2023-04-25T22:38:04.439Z,10.18
2023-04-25T22:40:30.936Z,10.33
2023-04-25T22:42:57.817Z,10.05
2023-04-25T22:45:24.422Z,10.21
2023-04-25T22:47:50.857Z,9.61
2023-04-25T22:50:17.760Z,10.14
2023-04-25T22:52:44.140Z,10.20
2023-04-25T22:55:12.340Z,10.21
2023-04-25T22:57:39.500Z,10.36
2023-04-25T23:00:19.939Z,10.12
2023-04-25T23:02:47.221Z,9.85
2023-04-25T23:05:14.747Z,10.22
2023-04-25T23:07:42.176Z,9.95
2023-04-25T23:10:08.936Z,9.39
2023-04-25T23:12:35.471Z,9.34
2023-04-25T23:15:04.202Z,9.71
2023-04-25T23:17:30.744Z,9.73
2023-04-25T23:19:57.605Z,9.27
2023-04-25T23:22:24.525Z,9.68
2023-04-25T23:24:51.174Z,9.77
2023-04-25T23:27:17.693Z,8.76
2023-04-25T23:29:44.135Z,9.27
2023-04-25T23:32:10.476Z,9.27
2023-04-25T23:34:37.483Z,9.39
2023-04-25T23:37:04.436Z,9.45
2023-04-25T23:39:31.058Z,9.60
2023-04-25T23:41:57.684Z,9.36
2023-04-25T23:44:24.006Z,9.14
2023-04-25T23:46:50.418Z,9.29
2023-04-25T23:49:16.847Z,9.52
2023-04-25T23:51:43.265Z,9.24
2023-04-25T23:54:09.639Z,8.60
2023-04-25T23:56:36.066Z,9.34
2023-04-25T23:59:02.467Z,9.40
